Terminal Aerodrome Forecast
Issued by NWS

Home | Current Version | Previous Version | Graphics & Text | Print | Product List | Glossary On
Versions: 1 2 3 4 5 6 7 8 9 10 11 12 13 14 15 16 17 18 19 20 21 22 23 24 25
000
FTUS43 KABR 271700
TAFATY
TAF
KATY 271737Z 2718/2818 17011KT P6SM BKN080
     FM272200 18014KT P6SM OVC035
     FM280200 17014KT 2SM -SN BR OVC010
     FM280600 18010KT 3SM BR OVC009
     FM281400 15005KT 2SM BR OVC005=

USA.gov is the U.S. government's official web portal to all federal, state and local government web resources and services.